createdAt,value
2019-02-05T00:02:14.375Z,74.20
2019-02-05T00:04:44.875Z,78.30
2019-02-05T00:07:15.292Z,73.50
2019-02-05T00:09:45.822Z,69.17
2019-02-05T00:12:16.282Z,75.47
2019-02-05T00:14:46.800Z,75.33
2019-02-05T00:17:17.379Z,74.53
2019-02-05T00:19:48.010Z,72.13
2019-02-05T00:22:18.482Z,76.60
2019-02-05T00:24:48.999Z,76.93
2019-02-05T00:27:19.511Z,71.23
2019-02-05T00:29:49.972Z,74.47
2019-02-05T00:32:20.494Z,67.90
2019-02-05T00:34:50.966Z,67.03
2019-02-05T00:37:21.859Z,65.80
2019-02-05T00:39:52.371Z,68.37
2019-02-05T00:42:22.894Z,68.97
2019-02-05T00:44:53.365Z,72.23
2019-02-05T00:47:24.007Z,68.57
2019-02-05T00:49:54.482Z,71.07
2019-02-05T00:52:24.999Z,72.60
2019-02-05T00:54:55.500Z,69.63
2019-02-05T00:57:25.963Z,72.43
2019-02-05T00:59:56.430Z,62.23
2019-02-05T01:02:27.057Z,70.70
2019-02-05T01:04:57.698Z,65.73
2019-02-05T01:07:28.165Z,66.63
2019-02-05T01:09:58.667Z,67.07
2019-02-05T01:12:29.236Z,66.13
2019-02-05T01:14:59.746Z,71.57
2019-02-05T01:17:30.599Z,65.60
2019-02-05T01:20:01.117Z,67.83
2019-02-05T01:22:31.614Z,60.40
2019-02-05T01:25:02.090Z,64.70
2019-02-05T01:27:32.579Z,61.30
2019-02-05T01:30:03.141Z,63.37
2019-02-05T01:32:33.651Z,59.90
2019-02-05T01:35:04.426Z,62.03
2019-02-05T01:37:35.038Z,63.00
2019-02-05T01:40:06.987Z,60.47
2019-02-05T01:42:37.499Z,62.33
2019-02-05T01:45:09.964Z,66.67
2019-02-05T01:47:40.578Z,54.50
2019-02-05T01:50:11.732Z,62.33
2019-02-05T01:52:42.206Z,64.90
2019-02-05T01:55:12.939Z,53.80
2019-02-05T01:57:43.792Z,60.73
2019-02-05T02:00:17.161Z,57.37
2019-02-05T02:02:47.737Z,62.37
2019-02-05T02:05:18.626Z,61.63
2019-02-05T02:07:49.321Z,60.70
2019-02-05T02:10:22.357Z,55.40
2019-02-05T02:12:53.016Z,59.77
2019-02-05T02:15:23.634Z,63.83
2019-02-05T02:17:54.311Z,59.80
2019-02-05T02:20:25.082Z,60.70
2019-02-05T02:22:56.182Z,56.77
2019-02-05T02:25:26.666Z,58.37
2019-02-05T02:27:57.233Z,58.50
2019-02-05T02:30:38.765Z,56.50
2019-02-05T02:33:09.578Z,60.97
2019-02-05T02:35:40.259Z,53.90
2019-02-05T02:38:10.948Z,61.97
2019-02-05T02:40:41.549Z,55.97
2019-02-05T02:43:12.023Z,56.57
2019-02-05T02:45:42.481Z,60.90
2019-02-05T02:48:13.264Z,55.03
2019-02-05T02:50:43.728Z,57.67
2019-02-05T02:53:14.240Z,50.83
2019-02-05T02:55:44.697Z,61.00
2019-02-05T02:58:15.194Z,57.47
2019-02-05T03:00:45.699Z,57.70
2019-02-05T03:03:16.194Z,58.07
2019-02-05T03:05:46.693Z,59.03
2019-02-05T03:08:17.193Z,56.37
2019-02-05T03:10:47.647Z,64.13
2019-02-05T03:13:18.147Z,53.90
2019-02-05T03:15:48.752Z,54.50
2019-02-05T03:18:19.296Z,57.77
2019-02-05T03:20:49.757Z,56.43
2019-02-05T03:23:20.328Z,57.27
2019-02-05T03:25:50.835Z,56.13
2019-02-05T03:28:21.302Z,56.43
2019-02-05T03:30:51.795Z,57.87
2019-02-05T03:33:23.890Z,63.13
2019-02-05T03:35:54.525Z,56.00
2019-02-05T03:38:25.002Z,68.03
2019-02-05T03:41:03.196Z,64.90
2019-02-05T03:43:34.520Z,70.37
2019-02-05T03:46:09.873Z,71.70
2019-02-05T03:48:42.120Z,73.73
2019-02-05T03:51:46.378Z,72.53
2019-02-05T03:54:35.387Z,72.17
2019-02-05T03:58:10.578Z,75.23
2019-02-05T04:01:12.272Z,73.87
2019-02-05T04:03:54.595Z,72.20
2019-02-05T04:06:45.711Z,66.30
2019-02-05T04:09:41.647Z,62.63
2019-02-05T04:13:01.589Z,61.20
2019-02-05T04:16:15.941Z,60.63
2019-02-05T04:19:25.884Z,56.57
2019-02-05T04:22:23.172Z,61.10
2019-02-05T04:26:04.239Z,55.63
2019-02-05T04:29:20.832Z,61.90
2019-02-05T04:32:20.079Z,62.27
2019-02-05T04:35:18.608Z,60.93
2019-02-05T04:38:25.302Z,58.20
2019-02-05T04:41:39.245Z,56.00
2019-02-05T04:44:47.902Z,57.50
2019-02-05T04:47:36.297Z,55.47
2019-02-05T04:50:30.100Z,62.73
2019-02-05T04:53:30.563Z,56.97
2019-02-05T04:56:39.858Z,58.20
2019-02-05T04:59:58.850Z,58.43
2019-02-05T05:02:42.304Z,53.30
2019-02-05T05:05:33.307Z,60.63
2019-02-05T05:08:32.591Z,59.07
2019-02-05T05:11:03.138Z,61.30
2019-02-05T05:13:33.870Z,60.77
2019-02-05T05:16:04.454Z,59.87
2019-02-05T05:18:34.960Z,60.17
2019-02-05T05:21:05.594Z,56.70
2019-02-05T05:23:36.263Z,56.73
2019-02-05T05:26:06.882Z,71.67
2019-02-05T05:28:40.569Z,70.07
2019-02-05T05:31:11.170Z,86.77
2019-02-05T05:33:41.719Z,73.23
2019-02-05T05:36:12.347Z,65.90
2019-02-05T05:38:42.814Z,71.23
2019-02-05T05:41:13.334Z,61.97
2019-02-05T05:43:43.809Z,61.97
2019-02-05T05:46:14.415Z,62.17
2019-02-05T05:48:44.968Z,59.97
2019-02-05T05:51:15.504Z,65.37
2019-02-05T05:53:45.966Z,66.03
2019-02-05T05:56:16.452Z,239.87
2019-02-05T05:58:47.001Z,157.10
2019-02-05T06:01:17.502Z,106.77
2019-02-05T06:03:48.039Z,84.53
2019-02-05T06:06:18.670Z,80.33
2019-02-05T06:08:49.159Z,95.37
2019-02-05T06:11:19.943Z,75.13
2019-02-05T06:13:50.563Z,81.47
2019-02-05T06:16:21.079Z,84.13
2019-02-05T06:18:51.572Z,78.37
2019-02-05T06:21:22.065Z,80.33
2019-02-05T06:23:52.890Z,80.30
2019-02-05T06:26:23.852Z,80.57
2019-02-05T06:28:54.474Z,84.07
2019-02-05T06:31:25.026Z,81.43
2019-02-05T06:33:55.577Z,77.70
2019-02-05T06:36:26.084Z,76.50
2019-02-05T06:38:56.576Z,77.20
2019-02-05T06:41:27.207Z,110.30
2019-02-05T06:43:59.948Z,131.30
2019-02-05T06:46:30.668Z,147.60
2019-02-05T06:49:01.603Z,136.87
2019-02-05T06:51:32.092Z,109.77
2019-02-05T06:54:03.091Z,107.30
2019-02-05T06:56:33.562Z,106.27
2019-02-05T06:59:04.194Z,113.83
2019-02-05T07:01:34.846Z,98.97
2019-02-05T07:04:05.978Z,97.63
2019-02-05T07:06:36.649Z,84.70
2019-02-05T07:09:10.110Z,68.73
2019-02-05T07:11:40.647Z,67.87
2019-02-05T07:14:11.260Z,67.50
2019-02-05T07:16:41.761Z,61.47
2019-02-05T07:19:12.329Z,55.37
2019-02-05T07:21:43.074Z,52.83
2019-02-05T07:24:13.928Z,49.90
2019-02-05T07:26:44.442Z,55.43
2019-02-05T07:29:14.928Z,52.63
2019-02-05T07:31:45.448Z,57.37
2019-02-05T07:34:15.972Z,56.90
2019-02-05T07:36:47.148Z,52.67
2019-02-05T07:39:17.883Z,45.83
2019-02-05T07:41:48.393Z,53.90
2019-02-05T07:44:18.908Z,47.63
2019-02-05T07:46:49.396Z,45.00
2019-02-05T07:49:19.903Z,45.13
2019-02-05T07:51:50.551Z,43.90
2019-02-05T07:54:21.276Z,50.27
2019-02-05T07:56:51.804Z,48.53
2019-02-05T07:59:22.442Z,40.43
2019-02-05T08:01:53.070Z,35.30
2019-02-05T08:04:23.627Z,32.80
2019-02-05T08:06:54.100Z,30.40
2019-02-05T08:09:24.913Z,32.00
2019-02-05T08:11:55.381Z,32.27
2019-02-05T08:14:25.906Z,34.40
2019-02-05T08:16:56.469Z,29.87
2019-02-05T08:19:26.956Z,31.43
2019-02-05T08:21:57.538Z,28.70
2019-02-05T08:24:28.167Z,26.63
2019-02-05T08:26:58.653Z,30.43
2019-02-05T08:29:29.215Z,30.17
2019-02-05T08:31:59.696Z,26.33
2019-02-05T08:34:30.201Z,26.80
2019-02-05T08:37:00.675Z,28.50
2019-02-05T08:39:31.229Z,28.67
2019-02-05T08:42:03.102Z,27.23
2019-02-05T08:44:33.586Z,25.17
2019-02-05T08:47:04.233Z,24.35
2019-02-05T08:49:34.762Z,25.10
2019-02-05T08:52:05.475Z,23.03
2019-02-05T08:54:36.106Z,26.13
2019-02-05T08:57:06.700Z,26.23
2019-02-05T08:59:37.195Z,26.17
2019-02-05T09:02:08.638Z,29.37
2019-02-05T09:04:39.177Z,27.50
2019-02-05T09:07:09.715Z,24.60
2019-02-05T09:09:40.256Z,32.53
2019-02-05T09:12:10.952Z,60.10
2019-02-05T09:14:41.479Z,34.00
2019-02-05T09:17:12.013Z,24.10
2019-02-05T09:19:42.577Z,25.60
2019-02-05T09:22:13.116Z,23.93
2019-02-05T09:24:43.665Z,24.53
2019-02-05T09:27:14.249Z,28.77
2019-02-05T09:29:44.747Z,31.77
2019-02-05T09:32:15.226Z,23.70
2019-02-05T09:34:46.009Z,26.50
2019-02-05T09:37:16.584Z,24.17
2019-02-05T09:39:47.383Z,25.57
2019-02-05T09:42:18.145Z,25.97
2019-02-05T09:44:48.632Z,26.00
2019-02-05T09:47:19.197Z,24.03
2019-02-05T09:49:49.907Z,27.83
2019-02-05T09:52:20.419Z,26.30
2019-02-05T09:54:51.363Z,27.00
2019-02-05T09:57:22.058Z,39.17
2019-02-05T09:59:52.820Z,27.07
2019-02-05T10:02:23.376Z,27.30
2019-02-05T10:04:53.904Z,27.83
2019-02-05T10:07:24.399Z,27.10
2019-02-05T10:09:55.230Z,24.43
2019-02-05T10:12:25.780Z,23.07
2019-02-05T10:14:56.332Z,24.60
2019-02-05T10:17:26.905Z,20.50
2019-02-05T10:19:57.393Z,21.47
2019-02-05T10:22:28.094Z,21.55
2019-02-05T10:24:58.861Z,21.60
2019-02-05T10:27:35.610Z,22.27
2019-02-05T10:30:08.846Z,20.20
2019-02-05T10:32:39.318Z,20.60
2019-02-05T10:35:09.983Z,21.63
2019-02-05T10:37:40.630Z,24.00
2019-02-05T10:40:11.402Z,23.47
2019-02-05T10:42:44.118Z,22.33
2019-02-05T10:45:14.972Z,18.90
2019-02-05T10:47:45.558Z,20.33
2019-02-05T10:50:17.174Z,20.97
2019-02-05T10:52:48.297Z,19.93
2019-02-05T10:55:19.355Z,20.70
2019-02-05T10:57:50.514Z,17.10
2019-02-05T11:00:26.633Z,15.67
2019-02-05T11:02:58.065Z,17.73
2019-02-05T11:05:30.026Z,35.00
2019-02-05T11:08:00.706Z,18.53
2019-02-05T11:10:31.273Z,20.87
2019-02-05T11:13:02.049Z,19.57
2019-02-05T11:15:33.703Z,19.13
2019-02-05T11:18:05.392Z,29.80
2019-02-05T11:21:00.282Z,19.80
2019-02-05T11:23:30.892Z,21.07
2019-02-05T11:26:01.401Z,17.47
2019-02-05T11:28:32.081Z,18.57
2019-02-05T11:33:50.695Z,19.63
2019-02-05T11:36:21.183Z,17.73
2019-02-05T11:38:51.749Z,17.53
2019-02-05T11:41:22.946Z,19.07
2019-02-05T11:43:53.354Z,18.90
2019-02-05T11:46:23.988Z,20.60
2019-02-05T11:49:01.314Z,19.50
2019-02-05T11:51:31.898Z,21.17
2019-02-05T11:54:02.789Z,17.30
2019-02-05T11:56:33.211Z,23.83
2019-02-05T11:59:03.643Z,18.80
2019-02-05T12:01:39.082Z,19.40
2019-02-05T12:04:08.486Z,17.23
2019-02-05T12:06:39.042Z,18.57
2019-02-05T12:09:19.367Z,14.10
2019-02-05T12:11:50.918Z,15.30
2019-02-05T12:14:21.326Z,16.43
2019-02-05T12:16:52.163Z,16.30
2019-02-05T12:19:22.691Z,16.43
2019-02-05T12:21:53.764Z,15.80
2019-02-05T12:24:24.284Z,15.40
2019-02-05T12:26:54.952Z,15.07
2019-02-05T12:29:26.148Z,16.73
2019-02-05T12:31:56.957Z,16.13
2019-02-05T12:34:27.787Z,14.23
2019-02-05T12:37:01.888Z,14.40
2019-02-05T12:39:32.374Z,16.10
2019-02-05T12:42:02.931Z,15.40
2019-02-05T12:44:33.390Z,16.90
2019-02-05T12:47:05.265Z,13.83
2019-02-05T12:49:36.617Z,11.77
2019-02-05T12:52:07.283Z,12.77
2019-02-05T12:54:37.794Z,12.77
2019-02-05T12:57:10.231Z,21.57
2019-02-05T12:59:40.635Z,17.23
2019-02-05T13:02:11.294Z,15.80
2019-02-05T13:04:42.011Z,14.63
2019-02-05T13:07:12.452Z,14.23
2019-02-05T13:09:42.899Z,12.97
2019-02-05T13:12:13.549Z,14.20
2019-02-05T13:14:43.962Z,17.53
2019-02-05T13:17:14.753Z,11.40
2019-02-05T13:19:47.503Z,16.23
2019-02-05T13:22:18.373Z,19.77
2019-02-05T13:24:48.842Z,17.87
2019-02-05T13:27:19.384Z,12.10
2019-02-05T13:29:50.121Z,13.00
2019-02-05T13:32:20.555Z,11.37
2019-02-05T13:34:51.028Z,11.87
2019-02-05T13:37:23.806Z,20.87
2019-02-05T13:39:54.515Z,28.33
2019-02-05T13:42:25.254Z,15.67
2019-02-05T13:44:55.887Z,12.83
2019-02-05T13:47:26.351Z,14.07
2019-02-05T13:49:56.845Z,11.57
2019-02-05T13:52:27.403Z,16.40
2019-02-05T13:54:57.831Z,13.20
2019-02-05T13:57:28.422Z,14.47
2019-02-05T13:59:58.907Z,12.97
2019-02-05T14:02:29.330Z,14.60
2019-02-05T14:04:59.908Z,11.53
2019-02-05T14:07:30.348Z,12.30
2019-02-05T14:10:01.080Z,24.47
2019-02-05T14:12:31.650Z,13.23
2019-02-05T14:15:02.170Z,12.17
2019-02-05T14:17:33.238Z,13.70
2019-02-05T14:20:03.893Z,14.07
2019-02-05T14:22:34.404Z,12.20
2019-02-05T14:25:06.097Z,12.33
2019-02-05T14:27:36.709Z,17.33
2019-02-05T14:30:10.110Z,12.97
2019-02-05T14:32:40.574Z,14.63
2019-02-05T14:35:11.257Z,13.17
2019-02-05T14:37:41.957Z,12.23
2019-02-05T14:40:15.003Z,15.20
2019-02-05T14:42:45.494Z,14.00
2019-02-05T14:45:17.562Z,13.63
2019-02-05T14:47:48.108Z,13.60
2019-02-05T14:50:22.146Z,13.97
2019-02-05T14:52:52.617Z,15.17
2019-02-05T14:55:23.458Z,14.70
2019-02-05T14:57:54.090Z,16.90
2019-02-05T15:00:27.475Z,14.87
2019-02-05T15:03:02.090Z,15.87
2019-02-05T15:05:32.386Z,17.87
2019-02-05T15:08:05.764Z,16.50
2019-02-05T15:10:35.213Z,16.60
2019-02-05T15:13:06.511Z,21.33
2019-02-05T15:15:37.318Z,18.53
2019-02-05T15:18:10.003Z,16.20
2019-02-05T15:20:42.690Z,21.07
2019-02-05T15:23:13.351Z,19.27
2019-02-05T15:25:44.159Z,18.53
2019-02-05T15:28:15.745Z,19.17
2019-02-05T15:30:47.907Z,18.77
2019-02-05T15:33:41.748Z,17.77
2019-02-05T15:36:22.311Z,17.67
2019-02-05T15:38:52.759Z,18.27
2019-02-05T15:41:23.509Z,18.60
2019-02-05T15:43:53.915Z,19.10
2019-02-05T15:46:24.642Z,18.33
2019-02-05T15:48:55.141Z,21.23
2019-02-05T15:51:26.058Z,22.13
2019-02-05T15:53:56.982Z,23.83
2019-02-05T15:56:27.689Z,19.40
2019-02-05T15:58:59.012Z,20.20
2019-02-05T16:01:29.831Z,24.77
2019-02-05T16:04:00.422Z,22.87
2019-02-05T16:06:31.290Z,21.80
2019-02-05T16:09:01.823Z,19.10
2019-02-05T16:11:32.371Z,20.73
2019-02-05T16:14:02.876Z,16.50
2019-02-05T16:16:33.334Z,17.00
2019-02-05T16:19:03.770Z,18.17
2019-02-05T16:21:34.253Z,21.53
2019-02-05T16:24:16.965Z,24.13
2019-02-05T16:26:47.782Z,23.50
2019-02-05T16:29:18.234Z,24.33
2019-02-05T16:31:48.974Z,23.37
2019-02-05T16:34:19.391Z,25.53
2019-02-05T16:36:49.849Z,26.13
2019-02-05T16:39:20.373Z,23.03
2019-02-05T16:41:50.842Z,25.87
2019-02-05T16:44:21.264Z,20.70
2019-02-05T16:46:51.731Z,17.53
2019-02-05T16:49:22.668Z,18.00
2019-02-05T16:51:53.145Z,15.27
2019-02-05T16:54:23.946Z,14.53
2019-02-05T16:56:54.552Z,15.03
2019-02-05T16:59:25.025Z,14.30
2019-02-05T17:01:57.255Z,14.80
2019-02-05T17:04:27.644Z,16.77
2019-02-05T17:06:58.193Z,15.17
2019-02-05T17:09:28.879Z,12.87
2019-02-05T17:11:59.482Z,14.80
2019-02-05T17:14:30.070Z,13.40
2019-02-05T17:17:00.537Z,16.30
2019-02-05T17:19:31.888Z,13.50
2019-02-05T17:22:02.525Z,14.27
2019-02-05T17:24:33.000Z,16.70
2019-02-05T17:27:03.426Z,19.00
2019-02-05T17:29:33.894Z,23.70
2019-02-05T17:32:07.628Z,30.67
2019-02-05T17:34:36.918Z,31.60
2019-02-05T17:37:07.592Z,28.87
2019-02-05T17:39:38.005Z,33.20
2019-02-05T17:42:08.574Z,22.87
2019-02-05T17:44:38.993Z,20.57
2019-02-05T17:47:09.661Z,16.10
2019-02-05T17:49:40.207Z,15.87
2019-02-05T17:52:10.645Z,13.10
2019-02-05T17:54:41.085Z,12.07
2019-02-05T17:57:11.561Z,11.93
2019-02-05T17:59:42.074Z,12.73
2019-02-05T18:02:13.156Z,12.07
2019-02-05T18:04:43.629Z,12.53
2019-02-05T18:07:14.092Z,12.03
2019-02-05T18:09:44.524Z,11.33
2019-02-05T18:12:14.982Z,12.43
2019-02-05T18:14:45.506Z,13.20
2019-02-05T18:17:15.978Z,13.10
2019-02-05T18:19:46.498Z,11.77
2019-02-05T18:22:17.049Z,11.53
2019-02-05T18:24:47.477Z,11.47
2019-02-05T18:27:17.947Z,11.57
2019-02-05T18:29:48.551Z,12.40
2019-02-05T18:32:19.012Z,13.27
2019-02-05T18:34:49.455Z,15.30
2019-02-05T18:37:19.877Z,15.40
2019-02-05T18:39:50.309Z,15.27
2019-02-05T18:42:20.790Z,14.80
2019-02-05T18:44:51.268Z,14.50
2019-02-05T18:47:21.869Z,13.43
2019-02-05T18:49:52.294Z,13.93
2019-02-05T18:52:22.762Z,13.47
2019-02-05T18:54:53.238Z,13.47
2019-02-05T18:57:23.986Z,13.93
2019-02-05T18:59:54.433Z,14.33
2019-02-05T19:02:24.862Z,14.17
2019-02-05T19:04:55.334Z,14.13
2019-02-05T19:07:25.756Z,15.50
2019-02-05T19:09:56.256Z,15.13
2019-02-05T19:12:26.772Z,15.43
2019-02-05T19:14:57.236Z,16.03
2019-02-05T19:17:27.658Z,16.47
2019-02-05T19:19:58.131Z,16.10
2019-02-05T19:22:28.568Z,16.60
2019-02-05T19:25:02.329Z,17.87
2019-02-05T19:27:32.815Z,17.10
2019-02-05T19:30:03.322Z,18.47
2019-02-05T19:32:33.782Z,18.67
2019-02-05T19:35:04.737Z,19.57
2019-02-05T19:37:35.585Z,19.13
2019-02-05T19:40:06.674Z,20.53
2019-02-05T19:42:37.085Z,18.63
2019-02-05T19:45:42.026Z,20.07
2019-02-05T19:48:19.586Z,18.53
2019-02-05T19:50:50.436Z,17.13
2019-02-05T19:53:20.989Z,17.67
2019-02-05T19:55:51.584Z,17.07
2019-02-05T19:58:22.052Z,18.33
2019-02-05T20:00:52.756Z,16.33
2019-02-05T20:03:23.194Z,14.97
2019-02-05T20:05:53.661Z,15.07
2019-02-05T20:08:26.790Z,14.33
2019-02-05T20:10:56.220Z,12.80
2019-02-05T20:13:26.652Z,12.27
2019-02-05T20:15:57.345Z,12.23
2019-02-05T20:18:27.807Z,11.43
2019-02-05T20:20:58.261Z,10.67
2019-02-05T20:23:28.689Z,11.10
2019-02-05T20:25:59.166Z,9.77
2019-02-05T20:28:29.637Z,10.87
2019-02-05T20:31:00.408Z,10.77
2019-02-05T20:33:30.878Z,11.87
2019-02-05T20:36:01.358Z,12.70
2019-02-05T20:38:32.026Z,13.00
2019-02-05T20:41:02.502Z,10.70
2019-02-05T20:43:33.001Z,12.17
2019-02-05T20:46:03.509Z,11.97
2019-02-05T20:48:34.051Z,11.63
2019-02-05T20:51:04.752Z,12.33
2019-02-05T20:53:35.226Z,11.73
2019-02-05T20:56:06.213Z,10.47
2019-02-05T20:58:36.729Z,10.30
2019-02-05T21:01:07.579Z,10.90
2019-02-05T21:03:37.993Z,9.87
2019-02-05T21:06:08.767Z,9.93
2019-02-05T21:08:39.240Z,12.00
2019-02-05T21:11:09.740Z,12.73
2019-02-05T21:13:40.273Z,12.63
2019-02-05T21:16:10.846Z,13.43
2019-02-05T21:18:41.345Z,10.90
2019-02-05T21:21:11.853Z,11.03
2019-02-05T21:23:42.360Z,8.97
2019-02-05T21:26:12.923Z,9.33
2019-02-05T21:28:43.437Z,9.53
2019-02-05T21:31:13.923Z,9.30
2019-02-05T21:33:44.431Z,9.50
2019-02-05T21:36:14.902Z,11.07
2019-02-05T21:38:45.638Z,11.27
2019-02-05T21:41:16.166Z,12.13
2019-02-05T21:43:46.838Z,10.37
2019-02-05T21:46:17.248Z,10.30
2019-02-05T21:48:47.703Z,9.83
2019-02-05T21:51:18.203Z,13.17
2019-02-05T21:53:48.677Z,11.03
2019-02-05T21:56:19.204Z,12.33
2019-02-05T21:58:50.005Z,11.60
2019-02-05T22:01:20.542Z,12.07
2019-02-05T22:03:51.016Z,12.00
2019-02-05T22:06:21.596Z,12.20
2019-02-05T22:08:52.130Z,11.47
2019-02-05T22:11:22.595Z,12.07
2019-02-05T22:13:53.380Z,12.70
2019-02-05T22:16:23.841Z,14.10
2019-02-05T22:18:54.295Z,13.60
2019-02-05T22:21:25.071Z,15.33
2019-02-05T22:23:55.597Z,14.40
2019-02-05T22:26:26.095Z,15.30
2019-02-05T22:28:56.833Z,16.17
2019-02-05T22:31:27.309Z,14.60
2019-02-05T22:33:57.778Z,14.27
2019-02-05T22:36:28.270Z,15.30
2019-02-05T22:38:58.727Z,17.80
2019-02-05T22:41:29.509Z,15.37
2019-02-05T22:43:59.957Z,14.30
2019-02-05T22:46:30.422Z,15.17
2019-02-05T22:49:00.896Z,14.90
2019-02-05T22:51:31.411Z,15.57
2019-02-05T22:54:01.921Z,14.30
2019-02-05T22:56:32.461Z,14.27
2019-02-05T22:59:03.206Z,14.37
2019-02-05T23:01:59.343Z,17.10
2019-02-05T23:05:13.583Z,14.10
2019-02-05T23:07:44.163Z,14.87
2019-02-05T23:10:20.533Z,14.77
2019-02-05T23:13:02.525Z,15.57
2019-02-05T23:15:33.039Z,15.30
2019-02-05T23:18:03.605Z,14.73
2019-02-05T23:20:34.386Z,15.57
2019-02-05T23:23:05.087Z,15.47
2019-02-05T23:25:35.640Z,16.07
2019-02-05T23:28:06.314Z,16.60
2019-02-05T23:30:37.027Z,15.70
2019-02-05T23:33:07.615Z,15.83
2019-02-05T23:35:38.078Z,14.70
2019-02-05T23:38:08.579Z,15.03
2019-02-05T23:40:39.044Z,14.63
2019-02-05T23:43:09.642Z,15.23
2019-02-05T23:45:40.200Z,14.97
2019-02-05T23:48:11.025Z,16.37
2019-02-05T23:50:41.626Z,13.40
2019-02-05T23:53:12.094Z,15.83
2019-02-05T23:55:42.593Z,14.50
2019-02-05T23:58:13.160Z,14.20
